Time;durP1;ratioP1;P1;durP2;ratioP2;P2;SDS_P1;SDS_P2;PMS_P1;PMS_P2;Temp;Humidity;BMP_temperature;BMP_pressure;BME280_temperature;BME280_humidity;BME280_pressure;Samples;Min_cycle;Max_cycle;Signal;HPM_P1;HPM_P2
2022/02/16 00:00:22;;;;;;;16.73;13.47;;;;;;;7.50;81.39;99776.00;4998690;28;20172;-69
2022/02/16 00:02:47;;;;;;;13.30;11.90;;;;;;;7.59;81.18;99766.56;4998438;28;20172;-70
2022/02/16 00:05:13;;;;;;;13.80;12.00;;;;;;;7.35;81.29;99777.63;4999140;28;20172;-70
2022/02/16 00:07:40;;;;;;;13.50;12.10;;;;;;;7.83;80.84;99754.56;4998505;28;20263;-69
2022/02/16 00:10:07;;;;;;;13.80;12.40;;;;;;;7.30;81.16;99762.91;4998676;28;20171;-68
2022/02/16 00:12:32;;;;;;;15.70;11.70;;;;;;;7.29;81.07;99764.59;4998908;28;20444;-70
2022/02/16 00:14:57;;;;;;;13.40;12.00;;;;;;;7.33;81.11;99765.50;4998569;28;20447;-69
2022/02/16 00:17:23;;;;;;;12.40;11.10;;;;;;;7.51;81.21;99755.28;4983005;28;20171;-69
2022/02/16 00:19:49;;;;;;;12.10;10.80;;;;;;;7.52;80.72;99753.53;5000801;28;20533;-69
2022/02/16 00:22:14;;;;;;;11.90;10.57;;;;;;;7.55;80.21;99759.63;4998560;28;20172;-69
2022/02/16 00:24:40;;;;;;;11.10;9.90;;;;;;;7.61;79.47;99753.59;4998153;28;20690;-70
2022/02/16 00:27:05;;;;;;;11.03;8.90;;;;;;;7.40;80.12;99759.50;4998886;28;20164;-69
2022/02/16 00:29:31;;;;;;;8.83;7.93;;;;;;;7.09;80.53;99754.13;4984996;28;20176;-69
2022/02/16 00:31:56;;;;;;;8.70;7.80;;;;;;;7.31;80.51;99752.53;5002406;28;20230;-69
2022/02/16 00:34:21;;;;;;;8.17;7.37;;;;;;;7.72;79.77;99735.50;5001954;28;20216;-71
2022/02/16 00:36:47;;;;;;;8.10;7.10;;;;;;;7.52;80.02;99743.16;5001923;28;20215;-71
2022/02/16 00:39:12;;;;;;;8.33;7.50;;;;;;;7.41;80.56;99741.38;5002081;28;20186;-70
2022/02/16 00:41:37;;;;;;;8.00;7.30;;;;;;;7.32;81.15;99736.13;5001991;28;20545;-69
2022/02/16 00:44:03;;;;;;;8.17;7.30;;;;;;;7.44;80.41;99732.72;5001647;28;20175;-69
2022/02/16 00:46:28;;;;;;;8.50;7.60;;;;;;;7.75;79.07;99720.81;5002452;28;20171;-69
2022/02/16 00:48:53;;;;;;;8.40;7.47;;;;;;;7.59;79.55;99729.38;5001988;28;20167;-69
2022/02/16 00:51:19;;;;;;;9.50;7.47;;;;;;;7.73;79.46;99727.72;4999442;28;20171;-70
2022/02/16 00:53:44;;;;;;;10.47;8.07;;;;;;;7.89;78.67;99730.41;4982478;28;20187;-69
2022/02/16 00:56:12;;;;;;;8.53;7.73;;;;;;;7.93;78.72;99716.56;4982229;28;20243;-69
2022/02/16 00:58:38;;;;;;;8.00;7.20;;;;;;;7.79;78.94;99719.09;4982161;28;20268;-69
2022/02/16 01:01:03;;;;;;;8.03;7.27;;;;;;;8.11;78.07;99707.09;4982482;28;20754;-69
2022/02/16 01:03:28;;;;;;;8.10;7.27;;;;;;;7.90;78.47;99720.00;4981954;28;20215;-69
2022/02/16 01:05:54;;;;;;;8.17;7.33;;;;;;;7.79;79.29;99718.22;4982238;28;20183;-71
2022/02/16 01:08:19;;;;;;;8.37;7.57;;;;;;;7.86;78.81;99714.78;4982399;28;20547;-69
2022/02/16 01:10:44;;;;;;;8.30;7.43;;;;;;;7.42;80.84;99719.75;4982040;28;20578;-70
2022/02/16 01:13:10;;;;;;;9.17;8.27;;;;;;;7.80;79.72;99718.22;4981676;28;20172;-68
2022/02/16 01:15:35;;;;;;;8.40;7.60;;;;;;;7.62;79.93;99703.44;4981911;28;20200;-70
2022/02/16 01:18:00;;;;;;;10.50;9.17;;;;;;;7.77;80.47;99702.66;4981889;28;20274;-68
2022/02/16 01:20:26;;;;;;;9.60;8.53;;;;;;;7.63;80.31;99706.91;4981823;28;20184;-69
2022/02/16 01:22:53;;;;;;;10.07;8.43;;;;;;;7.85;79.84;99706.16;4982558;28;20164;-69
2022/02/16 01:25:19;;;;;;;13.03;10.10;;;;;;;7.75;80.53;99694.88;4981999;28;20199;-70
2022/02/16 01:27:44;;;;;;;10.17;9.00;;;;;;;7.68;80.80;99687.91;4980863;28;20390;-69
2022/02/16 01:30:11;;;;;;;9.80;8.60;;;;;;;7.51;81.10;99685.25;4982178;28;20179;-67
2022/02/16 01:32:36;;;;;;;11.90;9.37;;;;;;;7.76;80.29;99680.16;4982182;28;20230;-67
2022/02/16 01:35:03;;;;;;;10.57;9.07;;;;;;;7.91;79.98;99669.84;4994993;28;20467;-68
2022/02/16 01:37:28;;;;;;;8.70;7.90;;;;;;;8.12;79.33;99672.47;4984274;28;20595;-68
2022/02/16 01:39:53;;;;;;;10.17;8.47;;;;;;;7.98;79.75;99667.25;4983868;28;20424;-68
2022/02/16 01:42:19;;;;;;;9.87;8.53;;;;;;;7.64;81.06;99669.75;5000891;28;20167;-68
2022/02/16 01:44:45;;;;;;;10.03;8.13;;;;;;;7.89;80.33;99663.78;5001091;28;20198;-68
2022/02/16 01:47:10;;;;;;;9.73;8.50;;;;;;;7.98;79.47;99665.50;5000998;28;20386;-67
2022/02/16 01:49:37;;;;;;;9.07;8.03;;;;;;;7.88;80.13;99662.03;5000657;28;20595;-69
2022/02/16 01:52:03;;;;;;;9.13;8.13;;;;;;;8.06;79.73;99656.06;4984135;28;20206;-68
2022/02/16 01:54:29;;;;;;;9.93;8.50;;;;;;;7.99;79.45;99653.44;5000328;28;20509;-68
2022/02/16 01:56:54;;;;;;;10.10;8.40;;;;;;;7.68;80.24;99656.78;5000423;28;20550;-69
2022/02/16 01:59:22;;;;;;;10.37;8.30;;;;;;;7.80;80.26;99653.38;5000780;28;20171;-68
2022/02/16 02:01:48;;;;;;;9.80;8.80;;;;;;;7.95;79.77;99644.75;5000573;28;20228;-68
2022/02/16 02:04:17;;;;;;;8.37;7.53;;;;;;;7.95;79.49;99638.72;4983402;28;20808;-69
2022/02/16 02:06:43;;;;;;;8.93;7.53;;;;;;;8.07;80.00;99633.53;5000904;28;20164;-67
2022/02/16 02:09:10;;;;;;;10.23;7.60;;;;;;;8.01;80.05;99631.81;5000324;28;20410;-68
2022/02/16 02:11:35;;;;;;;8.33;7.50;;;;;;;7.86;79.97;99622.25;5000093;28;20454;-68
2022/02/16 02:14:03;;;;;;;9.23;7.70;;;;;;;8.22;79.40;99619.72;4983511;28;20461;-68
2022/02/16 02:16:28;;;;;;;8.63;7.50;;;;;;;8.30;79.17;99618.00;5000296;28;20265;-69
2022/02/16 02:18:54;;;;;;;9.70;8.70;;;;;;;8.23;78.97;99618.88;4983315;28;20422;-69
2022/02/16 02:21:20;;;;;;;9.03;7.97;;;;;;;8.39;78.80;99612.81;5000303;28;20175;-69
2022/02/16 02:23:46;;;;;;;10.10;9.10;;;;;;;8.37;78.98;99608.47;4999939;28;20164;-70
2022/02/16 02:26:12;;;;;;;11.43;9.37;;;;;;;8.38;78.42;99607.63;4983191;28;20419;-69
2022/02/16 02:28:37;;;;;;;13.27;10.43;;;;;;;8.14;79.83;99611.06;5000617;28;20396;-68
2022/02/16 02:31:03;;;;;;;11.53;10.10;;;;;;;8.34;79.04;99596.34;4999773;28;20258;-69
2022/02/16 02:33:28;;;;;;;13.87;10.23;;;;;;;8.08;79.74;99604.13;4999779;28;20206;-69
2022/02/16 02:35:54;;;;;;;11.77;10.10;;;;;;;7.92;80.93;99604.09;5000182;28;20229;-70
2022/02/16 02:38:19;;;;;;;12.93;10.90;;;;;;;8.25;80.19;99592.03;4999763;28;20191;-70
2022/02/16 02:40:51;;;;;;;13.70;11.37;;;;;;;8.38;78.90;99592.03;4999743;28;20255;-69
2022/02/16 02:43:19;;;;;;;15.13;12.37;;;;;;;8.29;79.58;99590.28;5000119;28;20171;-69
2022/02/16 02:45:45;;;;;;;13.87;11.53;;;;;;;8.19;79.67;99588.56;5001328;28;20429;-69
2022/02/16 02:48:10;;;;;;;7.17;5.10;;;;;;;11.39;82.27;99563.31;5000882;28;20411;-55
2022/02/16 02:50:35;;;;;;;8.70;7.40;;;;;;;11.79;75.74;99549.72;4984177;28;20231;-60
2022/02/16 02:53:02;;;;;;;14.47;12.40;;;;;;;10.07;70.36;99548.09;4979988;28;20172;-68
2022/02/16 02:55:27;;;;;;;13.20;11.77;;;;;;;9.23;76.02;99552.94;4980153;28;20510;-69
2022/02/16 02:57:52;;;;;;;14.50;12.57;;;;;;;8.96;77.41;99546.94;4980548;28;20416;-69
2022/02/16 03:00:17;;;;;;;14.00;12.10;;;;;;;8.62;78.21;99551.34;4980008;28;20180;-69
2022/02/16 03:02:43;;;;;;;13.83;12.30;;;;;;;8.57;78.12;99554.81;4980013;28;20434;-70
2022/02/16 03:05:09;;;;;;;17.70;13.80;;;;;;;8.54;79.34;99553.97;4980407;28;20247;-68
2022/02/16 03:07:34;;;;;;;16.53;13.07;;;;;;;8.47;79.57;99558.31;4979724;28;20176;-69
2022/02/16 03:10:00;;;;;;;16.03;13.83;;;;;;;8.50;79.21;99550.50;4979979;28;20653;-69
2022/02/16 03:12:25;;;;;;;17.00;14.17;;;;;;;8.52;80.34;99550.50;4963334;28;20183;-69
2022/02/16 03:14:50;;;;;;;16.10;13.10;;;;;;;8.65;78.88;99551.34;4979634;28;20172;-69
2022/02/16 03:17:17;;;;;;;16.13;14.37;;;;;;;8.78;78.91;99563.44;4979923;28;20187;-70
2022/02/16 03:19:42;;;;;;;16.63;14.47;;;;;;;8.71;79.63;99564.31;4980329;28;20180;-69
2022/02/16 03:22:07;;;;;;;16.33;14.20;;;;;;;8.68;80.34;99567.78;4979769;28;20519;-68
2022/02/16 03:24:34;;;;;;;16.40;14.30;;;;;;;8.53;80.22;99570.41;4979478;28;20431;-69
2022/02/16 03:27:00;;;;;;;18.33;14.70;;;;;;;8.51;80.00;99572.13;4980259;28;20192;-69
2022/02/16 03:29:25;;;;;;;16.17;13.77;;;;;;;8.62;80.23;99569.53;4979625;28;20838;-69
2022/02/16 03:31:50;;;;;;;15.43;13.93;;;;;;;8.82;79.14;99572.09;4979977;28;20263;-70
2022/02/16 03:34:16;;;;;;;16.00;13.70;;;;;;;8.82;78.93;99561.69;4962495;28;20232;-69
2022/02/16 03:36:41;;;;;;;17.43;14.10;;;;;;;9.09;77.91;99561.63;4979447;28;20219;-69
2022/02/16 03:39:08;;;;;;;15.43;13.27;;;;;;;8.69;79.55;99563.47;4979425;28;20251;-69
2022/02/16 03:41:33;;;;;;;15.00;13.47;;;;;;;8.77;79.20;99553.94;4979367;28;20176;-69
2022/02/16 03:43:58;;;;;;;15.30;13.70;;;;;;;9.11;78.64;99548.63;4979305;28;20417;-70
2022/02/16 03:46:24;;;;;;;16.17;14.10;;;;;;;8.98;78.67;99539.13;4979945;28;20164;-69
2022/02/16 03:48:49;;;;;;;18.80;14.67;;;;;;;8.88;78.99;99548.72;4979926;28;20190;-70
2022/02/16 03:51:16;;;;;;;16.27;13.67;;;;;;;8.96;79.28;99541.75;4979959;28;20191;-69
2022/02/16 03:53:42;;;;;;;15.60;13.50;;;;;;;8.81;78.84;99544.38;4982158;28;20176;-69
2022/02/16 03:56:07;;;;;;;15.57;13.90;;;;;;;8.90;78.83;99539.16;4962459;28;20554;-69
2022/02/16 03:58:32;;;;;;;16.73;13.80;;;;;;;9.00;78.92;99538.28;4979316;28;20419;-69
2022/02/16 04:00:58;;;;;;;17.30;14.13;;;;;;;9.21;78.59;99536.44;4979803;28;20172;-69
2022/02/16 04:03:23;;;;;;;15.90;14.30;;;;;;;9.19;77.58;99533.00;4981124;28;20180;-69
2022/02/16 04:05:48;;;;;;;16.67;14.20;;;;;;;9.21;78.00;99529.50;4983264;28;20180;-69
2022/02/16 04:08:14;;;;;;;17.73;15.53;;;;;;;9.44;77.47;99532.03;4983631;28;20176;-69
2022/02/16 04:10:40;;;;;;;15.87;14.17;;;;;;;9.26;77.57;99530.34;4983369;28;20453;-70
2022/02/16 04:13:05;;;;;;;15.30;13.67;;;;;;;8.87;79.29;99529.63;4983598;28;20199;-70
2022/02/16 04:15:31;;;;;;;15.90;13.77;;;;;;;8.90;79.08;99520.97;4984404;28;20454;-69
2022/02/16 04:17:56;;;;;;;15.50;13.57;;;;;;;9.02;79.42;99515.72;4983365;28;20176;-69
2022/02/16 04:20:22;;;;;;;20.50;13.40;;;;;;;9.19;78.63;99510.47;4982790;28;20191;-71
2022/02/16 04:22:49;;;;;;;15.33;13.40;;;;;;;9.22;78.03;99514.78;4983287;28;20422;-68
2022/02/16 04:25:15;;;;;;;14.37;12.50;;;;;;;9.02;79.19;99507.06;4982954;28;20188;-70
2022/02/16 04:27:40;;;;;;;15.80;12.50;;;;;;;9.43;78.51;99496.47;4982927;28;20394;-70
2022/02/16 04:30:07;;;;;;;12.97;11.67;;;;;;;9.14;79.45;99498.34;4983315;28;20191;-71
2022/02/16 04:32:33;;;;;;;13.77;12.27;;;;;;;9.12;79.62;99487.97;4982753;28;20199;-70
2022/02/16 04:34:58;;;;;;;14.10;11.47;;;;;;;9.22;79.63;99478.38;4965791;28;20433;-69
2022/02/16 04:37:24;;;;;;;12.57;11.27;;;;;;;9.35;79.32;99477.44;4982974;28;20246;-69
2022/02/16 04:39:49;;;;;;;12.33;11.00;;;;;;;8.86;80.95;99483.75;4965818;28;20242;-68
2022/02/16 04:42:15;;;;;;;11.37;10.23;;;;;;;9.46;79.03;99484.28;4982689;28;20618;-69
2022/02/16 04:44:40;;;;;;;12.33;10.30;;;;;;;9.33;79.33;99476.56;4982776;28;20176;-69
2022/02/16 04:47:06;;;;;;;11.57;9.90;;;;;;;8.90;80.75;99481.97;4982579;28;20199;-70
2022/02/16 04:49:31;;;;;;;11.20;10.00;;;;;;;9.02;80.99;99463.72;4982284;28;20176;-70
2022/02/16 04:51:57;;;;;;;12.30;10.17;;;;;;;9.18;80.68;99461.91;4982573;28;20172;-70
2022/02/16 04:54:22;;;;;;;11.90;10.60;;;;;;;9.34;79.73;99461.84;4982222;28;20407;-70
2022/02/16 04:56:47;;;;;;;13.00;11.60;;;;;;;9.40;80.45;99457.47;4982168;28;20287;-71
2022/02/16 04:59:12;;;;;;;13.93;11.07;;;;;;;8.93;80.53;99462.03;4982662;28;20184;-71
2022/02/16 05:01:38;;;;;;;13.53;12.13;;;;;;;9.21;80.29;99453.25;4982278;28;20180;-70
2022/02/16 05:04:04;;;;;;;14.80;12.00;;;;;;;8.92;80.87;99449.06;4982166;28;20606;-69
2022/02/16 05:06:29;;;;;;;16.37;14.57;;;;;;;8.87;81.74;99438.66;4982565;28;20430;-69
2022/02/16 05:08:55;;;;;;;14.70;12.50;;;;;;;8.80;81.02;99428.31;4982127;28;20542;-69
2022/02/16 05:11:21;;;;;;;15.30;12.87;;;;;;;9.19;80.38;99422.06;4981921;28;20215;-69
2022/02/16 05:13:46;;;;;;;18.03;14.87;;;;;;;9.15;79.68;99416.88;4981794;28;20411;-70
2022/02/16 05:16:11;;;;;;;16.60;13.90;;;;;;;9.53;78.68;99410.56;4981953;28;20223;-69
2022/02/16 05:18:37;;;;;;;15.37;13.63;;;;;;;9.43;78.01;99405.41;4981961;28;20200;-69
2022/02/16 05:21:02;;;;;;;16.20;13.47;;;;;;;9.27;78.89;99402.06;4982339;28;20173;-69
2022/02/16 05:23:28;;;;;;;14.97;11.80;;;;;;;9.27;79.89;99401.22;4964839;28;20179;-70
2022/02/16 05:25:54;;;;;;;16.93;11.83;;;;;;;8.58;80.55;99374.72;4964942;28;20196;-70
2022/02/16 05:28:20;;;;;;;12.10;10.50;;;;;;;8.95;81.30;99371.06;4982240;28;20164;-69
2022/02/16 05:30:45;;;;;;;10.00;8.97;;;;;;;8.87;80.63;99372.84;4981792;28;20419;-72
2022/02/16 05:33:11;;;;;;;10.20;9.20;;;;;;;8.86;80.45;99371.09;4981846;28;20682;-69
2022/02/16 05:35:36;;;;;;;11.80;10.50;;;;;;;9.33;79.77;99364.75;4981448;28;20239;-70
2022/02/16 05:38:01;;;;;;;10.73;9.63;;;;;;;9.35;79.26;99357.81;4981484;28;20193;-69
2022/02/16 05:40:27;;;;;;;10.90;9.80;;;;;;;9.39;78.73;99345.63;4981709;28;20183;-70
2022/02/16 05:42:53;;;;;;;11.63;8.50;;;;;;;9.27;79.42;99341.41;4981451;28;20262;-69
2022/02/16 05:45:19;;;;;;;10.47;9.43;;;;;;;9.28;79.90;99332.69;4981364;28;20219;-69
2022/02/16 05:47:44;;;;;;;9.87;8.73;;;;;;;8.84;80.51;99326.09;4981921;28;20779;-69
2022/02/16 05:50:13;;;;;;;9.57;8.43;;;;;;;9.17;80.40;99318.91;4982355;28;20184;-69
2022/02/16 05:52:38;;;;;;;8.77;7.87;;;;;;;9.01;80.28;99313.84;4969516;28;20200;-70
2022/02/16 05:55:04;;;;;;;9.93;8.93;;;;;;;8.95;80.02;99318.22;4968032;28;20418;-69
2022/02/16 05:57:30;;;;;;;9.73;8.40;;;;;;;8.79;81.01;99291.47;4981571;28;20184;-70
2022/02/16 05:59:56;;;;;;;9.93;8.43;;;;;;;9.25;80.05;99291.13;4981494;28;20433;-70
2022/02/16 06:02:21;;;;;;;9.00;7.90;;;;;;;8.67;80.38;99287.22;4981631;28;20708;-69
2022/02/16 06:04:47;;;;;;;8.50;7.60;;;;;;;9.16;79.82;99279.06;4981149;28;20187;-69
2022/02/16 06:07:12;;;;;;;8.67;7.87;;;;;;;9.24;79.35;99269.47;4981296;28;20176;-70
2022/02/16 06:09:38;;;;;;;8.23;7.43;;;;;;;8.75;81.23;99268.13;4981446;28;20542;-68
2022/02/16 06:12:03;;;;;;;8.00;7.20;;;;;;;8.35;81.56;99265.72;4980889;28;20196;-69
2022/02/16 06:14:28;;;;;;;6.90;6.20;;;;;;;8.26;81.88;99250.16;4980660;28;20267;-69
2022/02/16 06:16:54;;;;;;;7.27;6.57;;;;;;;9.04;80.74;99241.03;4981417;28;20196;-68
2022/02/16 06:19:19;;;;;;;7.20;6.50;;;;;;;8.88;80.43;99248.09;4980727;28;20288;-69
2022/02/16 06:21:44;;;;;;;7.27;6.57;;;;;;;8.93;79.92;99245.47;4980777;28;20196;-69
2022/02/16 06:24:10;;;;;;;7.63;6.93;;;;;;;8.91;79.85;99236.81;4980884;28;20252;-69
2022/02/16 06:26:35;;;;;;;7.23;6.53;;;;;;;9.14;79.78;99239.22;4979643;28;20176;-69
2022/02/16 06:29:01;;;;;;;8.20;7.17;;;;;;;9.33;78.63;99242.50;4980415;28;20176;-69
2022/02/16 06:31:27;;;;;;;7.27;6.57;;;;;;;9.12;79.21;99238.38;4981093;28;20478;-69
2022/02/16 06:33:52;;;;;;;7.43;5.70;;;;;;;8.54;80.06;99244.88;4963506;28;20239;-70
2022/02/16 06:36:17;;;;;;;7.40;6.70;;;;;;;9.26;79.46;99230.44;4980315;28;20262;-69
2022/02/16 06:38:43;;;;;;;8.83;7.90;;;;;;;8.88;79.49;99223.84;4980738;28;20196;-70
2022/02/16 06:41:08;;;;;;;7.67;5.93;;;;;;;8.98;79.64;99212.47;4980438;28;20224;-71
2022/02/16 06:43:34;;;;;;;7.33;6.60;;;;;;;8.82;80.61;99198.78;4980193;28;20176;-69
2022/02/16 06:45:59;;;;;;;7.47;6.63;;;;;;;9.00;80.69;99189.94;4980731;28;20227;-69
2022/02/16 06:48:24;;;;;;;6.50;5.90;;;;;;;9.23;79.75;99166.31;4979951;28;20176;-71
2022/02/16 06:50:50;;;;;;;7.07;6.20;;;;;;;9.06;80.29;99153.47;4980070;28;20208;-69
2022/02/16 06:53:15;;;;;;;7.33;6.67;;;;;;;8.76;80.48;99147.69;4980277;28;20168;-69
2022/02/16 06:55:40;;;;;;;7.03;6.33;;;;;;;9.22;80.15;99137.75;4979872;28;20440;-70
2022/02/16 06:58:06;;;;;;;7.43;6.73;;;;;;;8.98;80.40;99131.91;4980186;28;20605;-69
2022/02/16 07:00:31;;;;;;;7.07;6.37;;;;;;;8.92;80.87;99137.19;4980752;28;20172;-70
2022/02/16 07:02:56;;;;;;;6.30;5.70;;;;;;;8.83;80.95;99134.66;4979836;28;20219;-69
2022/02/16 07:05:22;;;;;;;7.83;6.30;;;;;;;9.12;81.09;99116.19;4980064;28;20534;-69
2022/02/16 07:07:47;;;;;;;7.30;6.60;;;;;;;8.84;81.54;99118.19;4980720;28;20176;-69
2022/02/16 07:10:13;;;;;;;6.80;6.10;;;;;;;8.70;81.45;99111.41;4979839;28;20210;-69
2022/02/16 07:12:38;;;;;;;7.10;6.33;;;;;;;8.71;81.60;99099.25;4979757;28;20188;-70
2022/02/16 07:15:11;;;;;;;6.43;5.83;;;;;;;9.06;81.56;99092.84;4980122;28;20179;-68
2022/02/16 07:17:38;;;;;;;7.33;6.63;;;;;;;8.83;82.54;99095.69;4979659;28;20189;-69
2022/02/16 07:20:06;;;;;;;7.20;6.50;;;;;;;8.75;82.14;99099.22;4979626;28;20416;-69
2022/02/16 07:22:31;;;;;;;6.90;6.20;;;;;;;8.57;83.55;99086.41;4979574;28;20458;-69
2022/02/16 07:24:58;;;;;;;7.20;6.50;;;;;;;8.82;82.34;99070.56;4979476;28;20431;-69
2022/02/16 07:27:23;;;;;;;7.30;6.60;;;;;;;8.99;82.08;99060.84;4979940;28;20187;-70
2022/02/16 07:29:49;;;;;;;7.00;6.30;;;;;;;9.08;82.10;99065.09;4979424;28;20419;-69
2022/02/16 07:32:14;;;;;;;6.97;6.37;;;;;;;8.59;83.39;99064.72;4979562;28;20557;-69
2022/02/16 07:34:41;;;;;;;6.77;6.17;;;;;;;8.73;83.17;99064.59;4979242;28;20374;-70
2022/02/16 07:37:06;;;;;;;6.60;6.00;;;;;;;8.83;83.78;99046.31;4979003;28;20235;-70
2022/02/16 07:39:31;;;;;;;7.40;5.70;;;;;;;8.95;82.52;99046.19;4979612;28;20715;-70
2022/02/16 07:41:59;;;;;;;6.67;6.00;;;;;;;8.86;82.71;99036.75;4979442;28;20187;-69
2022/02/16 07:44:25;;;;;;;6.33;5.73;;;;;;;8.84;82.69;99035.06;4979681;28;20172;-69
2022/02/16 07:46:50;;;;;;;6.43;5.83;;;;;;;8.95;82.58;99016.75;4979865;28;20467;-67
2022/02/16 07:49:15;;;;;;;6.27;5.67;;;;;;;8.83;82.50;99015.13;4984367;28;20492;-67
2022/02/16 07:51:41;;;;;;;6.50;5.90;;;;;;;8.90;82.89;99014.19;4984098;28;20207;-69
2022/02/16 07:54:06;;;;;;;7.33;6.00;;;;;;;8.59;83.77;99006.72;4996283;28;20257;-71
2022/02/16 07:56:34;;;;;;;7.37;6.63;;;;;;;8.96;82.60;98987.25;4996641;28;20207;-69
2022/02/16 07:58:59;;;;;;;7.50;6.80;;;;;;;8.90;83.40;98990.78;4979223;28;20187;-69
2022/02/16 08:01:25;;;;;;;6.60;6.00;;;;;;;8.91;83.61;98980.38;4979749;28;20670;-69
2022/02/16 08:03:50;;;;;;;6.90;6.30;;;;;;;9.14;82.85;98979.22;4978989;28;20176;-69
2022/02/16 08:06:16;;;;;;;6.70;6.00;;;;;;;9.30;82.34;98966.88;4991112;28;20245;-69
2022/02/16 08:08:42;;;;;;;7.17;5.73;;;;;;;8.97;82.61;98979.47;4982005;28;20266;-69
2022/02/16 08:11:07;;;;;;;6.17;5.63;;;;;;;9.17;82.28;98953.19;4998714;28;20466;-69
2022/02/16 08:13:33;;;;;;;6.73;6.13;;;;;;;8.90;82.71;98952.69;4998446;28;20175;-69
2022/02/16 08:15:58;;;;;;;6.57;5.97;;;;;;;9.22;82.69;98937.53;4999003;28;20192;-69
2022/02/16 08:18:24;;;;;;;6.37;5.77;;;;;;;9.41;81.98;98933.78;4998469;28;20407;-69
2022/02/16 08:20:49;;;;;;;6.37;5.87;;;;;;;8.86;82.94;98935.41;4998469;28;20175;-66
2022/02/16 08:23:15;;;;;;;6.97;6.37;;;;;;;8.95;84.01;98917.97;4987710;28;20494;-68
2022/02/16 08:25:40;;;;;;;6.40;5.90;;;;;;;8.95;83.19;98908.44;4978934;28;20203;-68
2022/02/16 08:28:09;;;;;;;7.50;6.80;;;;;;;8.81;83.81;98908.63;4979125;28;20177;-68
2022/02/16 08:30:34;;;;;;;6.13;5.63;;;;;;;8.88;83.89;98902.44;4979236;28;20184;-69
2022/02/16 08:33:00;;;;;;;6.70;6.03;;;;;;;8.67;84.92;98892.34;4978775;28;20416;-70
2022/02/16 08:35:26;;;;;;;7.10;6.40;;;;;;;8.68;85.84;98900.09;4995377;28;20224;-68
2022/02/16 08:37:51;;;;;;;6.60;6.00;;;;;;;8.80;85.15;98888.72;4998698;28;20221;-68
2022/02/16 08:40:17;;;;;;;7.60;5.63;;;;;;;8.86;84.47;98872.16;4998130;28;20414;-68
2022/02/16 08:42:42;;;;;;;6.20;5.60;;;;;;;8.79;84.38;98863.59;4997851;28;20246;-69
2022/02/16 08:45:08;;;;;;;6.40;5.83;;;;;;;9.04;83.97;98856.31;4998367;28;20172;-68
2022/02/16 08:47:33;;;;;;;6.17;5.63;;;;;;;8.98;84.18;98846.00;4998025;28;20172;-69
2022/02/16 08:49:58;;;;;;;5.93;5.43;;;;;;;9.02;84.48;98847.69;5000837;28;20171;-69
2022/02/16 08:52:25;;;;;;;5.30;4.90;;;;;;;9.02;83.79;98839.88;5002298;28;20198;-67
2022/02/16 08:54:50;;;;;;;5.30;4.80;;;;;;;8.85;84.14;98844.47;5001546;28;20175;-68
2022/02/16 08:57:17;;;;;;;5.47;5.03;;;;;;;9.06;84.29;98828.56;5001568;28;20480;-68
2022/02/16 08:59:43;;;;;;;5.53;5.03;;;;;;;8.99;84.03;98813.94;4991767;28;20749;-69
2022/02/16 09:02:09;;;;;;;4.83;4.43;;;;;;;8.90;84.85;98790.69;5001124;28;20401;-69
2022/02/16 09:04:34;;;;;;;5.10;4.60;;;;;;;8.87;84.40;98786.38;4983349;28;20437;-68
2022/02/16 09:09:44;;;;;;;4.50;4.20;;;;;;;9.04;84.61;98770.56;5001502;28;20190;-68
2022/02/16 09:12:09;;;;;;;5.23;4.73;;;;;;;8.87;84.95;98769.94;5000776;28;20415;-68
2022/02/16 09:14:35;;;;;;;5.20;4.80;;;;;;;9.04;85.34;98760.16;5000973;28;20167;-68
2022/02/16 09:17:01;;;;;;;4.37;3.97;;;;;;;9.19;84.95;98742.59;4984088;28;20265;-69
2022/02/16 09:19:26;;;;;;;6.33;3.80;;;;;;;8.96;84.68;98742.94;5001430;28;20426;-69
2022/02/16 09:21:52;;;;;;;3.97;3.67;;;;;;;9.04;85.42;98730.72;4984089;28;20525;-68
2022/02/16 09:24:17;;;;;;;4.00;3.70;;;;;;;8.90;85.30;98712.72;5000600;28;20187;-69
2022/02/16 09:26:44;;;;;;;3.87;3.57;;;;;;;8.99;84.61;98722.97;5001375;28;20167;-69
2022/02/16 09:29:09;;;;;;;3.10;2.90;;;;;;;9.13;84.22;98693.31;5000635;28;20171;-69
2022/02/16 09:31:35;;;;;;;3.83;3.53;;;;;;;9.21;85.27;98684.47;5000902;28;20548;-70
2022/02/16 09:34:00;;;;;;;4.00;3.70;;;;;;;9.25;84.76;98680.97;5000854;28;20615;-67
2022/02/16 09:36:25;;;;;;;3.90;3.60;;;;;;;9.42;84.17;98674.56;5000822;28;20301;-68
2022/02/16 09:38:51;;;;;;;3.07;2.87;;;;;;;9.18;85.20;98670.69;5000970;28;20254;-68
2022/02/16 09:41:16;;;;;;;3.17;2.97;;;;;;;9.20;84.60;98668.91;5000753;28;20176;-68
2022/02/16 09:43:44;;;;;;;3.90;3.60;;;;;;;9.24;85.46;98650.63;5000466;28;20266;-70
2022/02/16 09:46:09;;;;;;;3.40;3.20;;;;;;;9.06;85.50;98662.19;4983784;28;20270;-69
2022/02/16 09:48:35;;;;;;;3.13;2.93;;;;;;;9.22;85.86;98652.38;5000591;28;20507;-68
2022/02/16 09:51:00;;;;;;;2.90;2.70;;;;;;;9.02;85.40;98638.91;4983796;28;20422;-67
2022/02/16 09:53:25;;;;;;;3.33;2.90;;;;;;;9.12;86.06;98639.59;5000669;28;20481;-68
2022/02/16 09:55:51;;;;;;;3.20;3.00;;;;;;;9.10;86.12;98621.44;5000370;28;20591;-69
2022/02/16 09:58:16;;;;;;;2.90;2.70;;;;;;;9.06;86.19;98628.41;5000407;28;20180;-71
2022/02/16 10:01:07;;;;;;;3.40;3.20;;;;;;;9.05;86.90;98624.13;5000368;28;20183;-71
2022/02/16 10:03:33;;;;;;;4.43;2.97;;;;;;;8.98;87.53;98624.25;4980349;28;20176;-70
2022/02/16 10:05:58;;;;;;;3.40;3.20;;;;;;;9.03;86.97;98615.47;4980669;28;20833;-68
2022/02/16 10:08:43;;;;;;;3.63;3.27;;;;;;;9.23;86.03;98603.88;4980713;28;20394;-66
2022/02/16 10:11:09;;;;;;;3.60;3.30;;;;;;;9.40;85.62;98612.19;4980568;28;20275;-66
2022/02/16 10:13:34;;;;;;;4.70;4.30;;;;;;;9.41;85.50;98590.47;4980492;28;20644;-65
2022/02/16 10:16:00;;;;;;;5.47;4.83;;;;;;;9.60;85.25;98588.34;4980520;28;20478;-66
2022/02/16 10:18:25;;;;;;;4.17;3.77;;;;;;;9.55;85.14;98591.94;4980801;28;20192;-66
2022/02/16 10:20:51;;;;;;;5.33;4.50;;;;;;;9.67;85.72;98593.44;4963580;28;20202;-67
2022/02/16 10:23:17;;;;;;;4.73;4.20;;;;;;;9.87;85.56;98587.81;4963299;28;20239;-68
2022/02/16 10:25:51;;;;;;;4.63;4.13;;;;;;;9.63;85.68;98586.59;4980659;28;20268;-65
2022/02/16 10:28:19;;;;;;;5.07;4.67;;;;;;;9.69;86.00;98596.88;4980361;28;20401;-65
2022/02/16 10:31:02;;;;;;;4.20;3.80;;;;;;;9.78;85.99;98587.13;4980285;28;20403;-66
2022/02/16 10:33:35;;;;;;;4.30;3.90;;;;;;;9.70;86.22;98582.97;4980057;28;20676;-65
2022/02/16 10:36:03;;;;;;;4.47;4.07;;;;;;;9.94;86.13;98597.19;4980782;28;20442;-66
2022/02/16 10:38:29;;;;;;;3.80;3.50;;;;;;;9.84;86.17;98578.31;4981081;28;20505;-65
2022/02/16 10:41:04;;;;;;;4.40;4.00;;;;;;;9.55;87.17;98587.63;4980666;28;20498;-65
2022/02/16 10:43:37;;;;;;;4.10;3.80;;;;;;;9.81;87.50;98570.59;4980150;28;20836;-64
2022/02/16 10:46:16;;;;;;;4.00;3.60;;;;;;;9.64;87.77;98589.16;4981691;28;20419;-68
2022/02/16 10:48:41;;;;;;;3.90;3.60;;;;;;;9.93;87.49;98572.03;4982805;28;20481;-68
2022/02/16 10:51:15;;;;;;;3.70;3.40;;;;;;;9.84;87.04;98554.06;4982590;28;20472;-71
2022/02/16 10:53:40;;;;;;;3.77;3.47;;;;;;;9.61;87.93;98545.84;4983200;28;20164;-70
2022/02/16 10:56:07;;;;;;;3.60;3.40;;;;;;;9.74;88.59;98558.59;4980199;28;20517;-69
2022/02/16 10:58:33;;;;;;;3.60;3.30;;;;;;;9.71;88.74;98549.09;4979747;28;20287;-68
2022/02/16 11:01:01;;;;;;;4.00;3.70;;;;;;;9.91;88.09;98540.84;4980269;28;20451;-69
2022/02/16 11:03:30;;;;;;;3.70;3.40;;;;;;;10.10;87.24;98543.88;4979890;28;20515;-69
2022/02/16 11:05:57;;;;;;;4.37;3.97;;;;;;;9.72;87.95;98537.81;4979627;28;20514;-69
2022/02/16 11:08:25;;;;;;;4.13;3.77;;;;;;;9.96;88.09;98522.53;4980130;28;20423;-69
2022/02/16 11:10:50;;;;;;;4.17;3.77;;;;;;;9.97;87.99;98534.63;4981015;28;20413;-69
2022/02/16 11:13:21;;;;;;;3.77;3.47;;;;;;;9.97;87.22;98525.97;4980037;28;20402;-69
2022/02/16 11:15:49;;;;;;;4.00;3.70;;;;;;;10.00;88.62;98526.78;4981002;28;20505;-69
2022/02/16 11:18:23;;;;;;;4.70;4.30;;;;;;;10.29;88.47;98513.03;4981681;28;20443;-70
2022/02/16 11:21:10;;;;;;;4.10;3.80;;;;;;;9.95;89.31;98515.59;4980077;28;20402;-69
2022/02/16 11:23:42;;;;;;;4.10;3.80;;;;;;;10.07;88.79;98520.50;4979245;28;20430;-69
2022/02/16 11:26:26;;;;;;;4.27;3.97;;;;;;;10.44;87.85;98517.03;4979474;28;20433;-68
2022/02/16 11:28:51;;;;;;;4.90;4.50;;;;;;;10.71;86.46;98511.13;4979343;28;20403;-70
2022/02/16 11:31:43;;;;;;;4.30;3.93;;;;;;;10.19;88.87;98511.56;4979374;28;20510;-69
2022/02/16 11:34:11;;;;;;;4.10;3.80;;;;;;;10.36;88.94;98521.56;4975242;28;20259;-69